sensor_id;sensor_type;location;lat;lon;timestamp;pressure;altitude;pressure_sealevel;temperature;humidity
60611;BME280;46439;51.164;13.572;2023-05-23T00:01:41;99659.45;;;21.52;100.00
60611;BME280;46439;51.164;13.572;2023-05-23T00:04:10;99663.34;;;21.50;100.00
60611;BME280;46439;51.164;13.572;2023-05-23T00:06:44;99656.98;;;21.51;100.00
60611;BME280;46439;51.164;13.572;2023-05-23T00:09:14;99654.76;;;21.37;100.00
60611;BME280;46439;51.164;13.572;2023-05-23T00:11:42;99653.83;;;21.28;100.00
60611;BME280;46439;51.164;13.572;2023-05-23T00:14:13;99647.27;;;21.30;100.00
60611;BME280;46439;51.164;13.572;2023-05-23T00:16:43;99642.91;;;21.18;100.00
60611;BME280;46439;51.164;13.572;2023-05-23T00:19:12;99636.66;;;21.14;100.00
60611;BME280;46439;51.164;13.572;2023-05-23T00:21:45;99628.02;;;21.08;100.00
60611;BME280;46439;51.164;13.572;2023-05-23T00:24:17;99631.58;;;21.02;100.00
60611;BME280;46439;51.164;13.572;2023-05-23T00:26:47;99629.44;;;21.07;100.00
60611;BME280;46439;51.164;13.572;2023-05-23T00:29:16;99632.34;;;21.11;100.00
60611;BME280;46439;51.164;13.572;2023-05-23T00:31:45;99637.72;;;21.10;100.00
60611;BME280;46439;51.164;13.572;2023-05-23T00:34:14;99641.90;;;21.12;100.00
60611;BME280;46439;51.164;13.572;2023-05-23T00:36:43;99643.09;;;21.15;100.00
60611;BME280;46439;51.164;13.572;2023-05-23T00:39:14;99653.58;;;21.16;100.00
60611;BME280;46439;51.164;13.572;2023-05-23T00:41:50;99662.14;;;21.16;100.00
60611;BME280;46439;51.164;13.572;2023-05-23T00:44:20;99668.61;;;21.14;100.00
60611;BME280;46439;51.164;13.572;2023-05-23T00:46:52;99671.61;;;21.13;100.00
60611;BME280;46439;51.164;13.572;2023-05-23T00:49:21;99678.63;;;21.12;100.00
60611;BME280;46439;51.164;13.572;2023-05-23T00:51:50;99680.58;;;21.10;100.00
60611;BME280;46439;51.164;13.572;2023-05-23T00:54:25;99676.67;;;21.09;100.00
60611;BME280;46439;51.164;13.572;2023-05-23T00:56:54;99675.14;;;21.07;100.00
60611;BME280;46439;51.164;13.572;2023-05-23T00:59:25;99665.33;;;21.02;100.00
60611;BME280;46439;51.164;13.572;2023-05-23T01:01:55;99658.90;;;20.93;100.00
60611;BME280;46439;51.164;13.572;2023-05-23T01:04:24;99652.70;;;20.85;100.00
60611;BME280;46439;51.164;13.572;2023-05-23T01:06:55;99646.45;;;20.73;100.00
60611;BME280;46439;51.164;13.572;2023-05-23T01:09:24;99643.63;;;20.61;100.00
60611;BME280;46439;51.164;13.572;2023-05-23T01:12:02;99628.16;;;20.46;100.00
60611;BME280;46439;51.164;13.572;2023-05-23T01:14:37;99615.34;;;20.29;100.00
60611;BME280;46439;51.164;13.572;2023-05-23T01:17:18;99615.99;;;20.17;100.00
60611;BME280;46439;51.164;13.572;2023-05-23T01:19:59;99617.98;;;20.07;100.00
60611;BME280;46439;51.164;13.572;2023-05-23T01:22:46;99622.94;;;20.02;100.00
60611;BME280;46439;51.164;13.572;2023-05-23T01:25:27;99620.27;;;19.94;100.00
60611;BME280;46439;51.164;13.572;2023-05-23T01:27:59;99611.36;;;19.91;100.00
60611;BME280;46439;51.164;13.572;2023-05-23T01:30:31;99621.98;;;19.94;100.00
60611;BME280;46439;51.164;13.572;2023-05-23T01:33:03;99633.63;;;19.99;100.00
60611;BME280;46439;51.164;13.572;2023-05-23T01:35:32;99641.00;;;20.05;100.00
60611;BME280;46439;51.164;13.572;2023-05-23T01:38:00;99649.01;;;20.05;100.00
60611;BME280;46439;51.164;13.572;2023-05-23T01:40:29;99655.65;;;19.99;100.00
60611;BME280;46439;51.164;13.572;2023-05-23T01:42:58;99668.08;;;19.85;100.00
60611;BME280;46439;51.164;13.572;2023-05-23T01:45:28;99668.41;;;19.71;100.00
60611;BME280;46439;51.164;13.572;2023-05-23T01:47:57;99651.84;;;19.64;100.00
60611;BME280;46439;51.164;13.572;2023-05-23T01:50:26;99644.12;;;19.58;100.00
60611;BME280;46439;51.164;13.572;2023-05-23T01:52:55;99631.88;;;19.51;100.00
60611;BME280;46439;51.164;13.572;2023-05-23T01:55:25;99629.62;;;19.47;100.00
60611;BME280;46439;51.164;13.572;2023-05-23T01:57:55;99630.45;;;19.47;100.00
60611;BME280;46439;51.164;13.572;2023-05-23T02:00:25;99630.39;;;19.45;100.00
60611;BME280;46439;51.164;13.572;2023-05-23T02:02:53;99624.59;;;19.44;100.00
60611;BME280;46439;51.164;13.572;2023-05-23T02:05:22;99621.48;;;19.45;100.00
60611;BME280;46439;51.164;13.572;2023-05-23T02:07:50;99614.93;;;19.49;100.00
60611;BME280;46439;51.164;13.572;2023-05-23T02:10:19;99614.21;;;19.52;100.00
60611;BME280;46439;51.164;13.572;2023-05-23T02:12:48;99618.27;;;19.53;100.00
60611;BME280;46439;51.164;13.572;2023-05-23T02:15:16;99613.67;;;19.56;100.00
60611;BME280;46439;51.164;13.572;2023-05-23T02:17:45;99618.73;;;19.63;100.00
60611;BME280;46439;51.164;13.572;2023-05-23T02:20:15;99620.92;;;19.69;100.00
60611;BME280;46439;51.164;13.572;2023-05-23T02:22:46;99621.17;;;19.76;100.00
60611;BME280;46439;51.164;13.572;2023-05-23T02:25:14;99615.92;;;19.79;100.00
60611;BME280;46439;51.164;13.572;2023-05-23T02:27:43;99613.35;;;19.75;100.00
60611;BME280;46439;51.164;13.572;2023-05-23T02:30:12;99603.36;;;19.67;100.00
60611;BME280;46439;51.164;13.572;2023-05-23T02:32:41;99605.98;;;19.57;100.00
60611;BME280;46439;51.164;13.572;2023-05-23T02:35:10;99605.34;;;19.51;100.00
60611;BME280;46439;51.164;13.572;2023-05-23T02:37:39;99598.42;;;19.48;100.00
60611;BME280;46439;51.164;13.572;2023-05-23T02:40:09;99603.50;;;19.47;100.00
60611;BME280;46439;51.164;13.572;2023-05-23T02:42:37;99600.66;;;19.48;100.00
60611;BME280;46439;51.164;13.572;2023-05-23T02:45:08;99599.55;;;19.47;100.00
60611;BME280;46439;51.164;13.572;2023-05-23T02:47:36;99594.05;;;19.49;100.00
60611;BME280;46439;51.164;13.572;2023-05-23T02:50:06;99589.29;;;19.49;100.00
60611;BME280;46439;51.164;13.572;2023-05-23T02:52:35;99590.33;;;19.52;100.00
60611;BME280;46439;51.164;13.572;2023-05-23T02:55:04;99582.77;;;19.58;100.00
60611;BME280;46439;51.164;13.572;2023-05-23T02:57:33;99579.23;;;19.63;100.00
60611;BME280;46439;51.164;13.572;2023-05-23T03:00:01;99579.67;;;19.62;100.00
60611;BME280;46439;51.164;13.572;2023-05-23T03:02:30;99573.68;;;19.63;100.00
60611;BME280;46439;51.164;13.572;2023-05-23T03:04:58;99570.70;;;19.66;100.00
60611;BME280;46439;51.164;13.572;2023-05-23T03:07:27;99574.45;;;19.70;100.00
60611;BME280;46439;51.164;13.572;2023-05-23T03:09:55;99572.31;;;19.76;100.00
60611;BME280;46439;51.164;13.572;2023-05-23T03:12:24;99567.74;;;19.77;100.00
60611;BME280;46439;51.164;13.572;2023-05-23T03:14:52;99565.56;;;19.74;100.00
60611;BME280;46439;51.164;13.572;2023-05-23T03:17:21;99566.11;;;19.75;100.00
60611;BME280;46439;51.164;13.572;2023-05-23T03:19:49;99570.30;;;19.76;100.00
60611;BME280;46439;51.164;13.572;2023-05-23T03:22:18;99571.13;;;19.79;100.00
60611;BME280;46439;51.164;13.572;2023-05-23T03:24:46;99566.75;;;19.84;100.00
60611;BME280;46439;51.164;13.572;2023-05-23T03:27:15;99562.40;;;19.89;100.00
60611;BME280;46439;51.164;13.572;2023-05-23T03:29:44;99556.29;;;19.91;100.00
60611;BME280;46439;51.164;13.572;2023-05-23T03:32:12;99557.44;;;19.91;100.00
60611;BME280;46439;51.164;13.572;2023-05-23T03:34:41;99565.05;;;19.91;100.00
60611;BME280;46439;51.164;13.572;2023-05-23T03:37:09;99573.08;;;19.89;100.00
60611;BME280;46439;51.164;13.572;2023-05-23T03:39:38;99583.13;;;19.80;100.00
60611;BME280;46439;51.164;13.572;2023-05-23T03:42:07;99585.46;;;19.67;100.00
60611;BME280;46439;51.164;13.572;2023-05-23T03:44:35;99587.51;;;19.59;100.00
60611;BME280;46439;51.164;13.572;2023-05-23T03:47:04;99590.59;;;19.57;100.00
60611;BME280;46439;51.164;13.572;2023-05-23T03:49:33;99593.25;;;19.55;100.00
60611;BME280;46439;51.164;13.572;2023-05-23T03:52:02;99588.92;;;19.58;100.00
60611;BME280;46439;51.164;13.572;2023-05-23T03:54:31;99585.12;;;19.64;100.00
60611;BME280;46439;51.164;13.572;2023-05-23T03:56:59;99585.27;;;19.72;100.00
60611;BME280;46439;51.164;13.572;2023-05-23T03:59:28;99588.27;;;19.76;100.00
60611;BME280;46439;51.164;13.572;2023-05-23T04:01:57;99592.83;;;19.81;100.00
60611;BME280;46439;51.164;13.572;2023-05-23T04:04:26;99595.61;;;19.84;100.00
60611;BME280;46439;51.164;13.572;2023-05-23T04:06:55;99593.83;;;19.85;100.00
60611;BME280;46439;51.164;13.572;2023-05-23T04:09:23;99599.20;;;19.89;100.00
60611;BME280;46439;51.164;13.572;2023-05-23T04:11:52;99604.71;;;19.94;100.00
60611;BME280;46439;51.164;13.572;2023-05-23T04:14:20;99606.69;;;19.98;100.00
60611;BME280;46439;51.164;13.572;2023-05-23T04:16:49;99604.23;;;19.88;100.00
60611;BME280;46439;51.164;13.572;2023-05-23T04:19:18;99605.11;;;19.91;100.00
60611;BME280;46439;51.164;13.572;2023-05-23T04:21:46;99609.52;;;19.90;100.00
60611;BME280;46439;51.164;13.572;2023-05-23T04:24:15;99607.85;;;19.92;100.00
60611;BME280;46439;51.164;13.572;2023-05-23T04:26:43;99613.86;;;19.96;100.00
60611;BME280;46439;51.164;13.572;2023-05-23T04:29:11;99613.69;;;19.96;100.00
60611;BME280;46439;51.164;13.572;2023-05-23T04:31:40;99611.20;;;20.01;100.00
60611;BME280;46439;51.164;13.572;2023-05-23T04:34:08;99612.98;;;20.03;100.00
60611;BME280;46439;51.164;13.572;2023-05-23T04:36:36;99609.73;;;20.03;100.00
60611;BME280;46439;51.164;13.572;2023-05-23T04:39:05;99609.52;;;20.06;100.00
60611;BME280;46439;51.164;13.572;2023-05-23T04:41:34;99612.14;;;20.09;100.00
60611;BME280;46439;51.164;13.572;2023-05-23T04:44:03;99608.97;;;20.09;100.00
60611;BME280;46439;51.164;13.572;2023-05-23T04:46:33;99610.86;;;19.97;100.00
60611;BME280;46439;51.164;13.572;2023-05-23T04:49:01;99611.66;;;20.00;100.00
60611;BME280;46439;51.164;13.572;2023-05-23T04:51:31;99610.30;;;19.99;100.00
60611;BME280;46439;51.164;13.572;2023-05-23T04:54:01;99612.84;;;19.98;100.00
60611;BME280;46439;51.164;13.572;2023-05-23T04:56:29;99613.74;;;19.93;100.00
60611;BME280;46439;51.164;13.572;2023-05-23T04:58:58;99620.80;;;19.89;100.00
60611;BME280;46439;51.164;13.572;2023-05-23T05:01:26;99623.64;;;19.82;100.00
60611;BME280;46439;51.164;13.572;2023-05-23T05:03:55;99626.37;;;19.81;100.00
60611;BME280;46439;51.164;13.572;2023-05-23T05:06:24;99629.61;;;19.82;100.00
60611;BME280;46439;51.164;13.572;2023-05-23T05:08:54;99632.86;;;19.77;100.00
60611;BME280;46439;51.164;13.572;2023-05-23T05:11:22;99630.30;;;19.72;100.00
60611;BME280;46439;51.164;13.572;2023-05-23T05:13:51;99632.20;;;19.72;100.00
60611;BME280;46439;51.164;13.572;2023-05-23T05:16:19;99628.69;;;19.65;100.00
60611;BME280;46439;51.164;13.572;2023-05-23T05:18:48;99628.90;;;19.71;100.00
60611;BME280;46439;51.164;13.572;2023-05-23T05:21:17;99625.87;;;19.72;100.00
60611;BME280;46439;51.164;13.572;2023-05-23T05:23:45;99629.98;;;19.72;100.00
60611;BME280;46439;51.164;13.572;2023-05-23T05:26:14;99626.25;;;19.75;100.00
60611;BME280;46439;51.164;13.572;2023-05-23T05:28:42;99625.75;;;19.73;100.00
60611;BME280;46439;51.164;13.572;2023-05-23T05:31:11;99626.27;;;19.76;100.00
60611;BME280;46439;51.164;13.572;2023-05-23T05:33:42;99626.70;;;19.75;100.00
60611;BME280;46439;51.164;13.572;2023-05-23T05:36:13;99627.37;;;19.75;100.00
60611;BME280;46439;51.164;13.572;2023-05-23T05:38:41;99626.75;;;19.78;100.00
60611;BME280;46439;51.164;13.572;2023-05-23T05:41:09;99625.35;;;19.83;100.00
60611;BME280;46439;51.164;13.572;2023-05-23T05:43:38;99634.16;;;19.86;100.00
60611;BME280;46439;51.164;13.572;2023-05-23T05:46:07;99632.67;;;19.87;100.00
60611;BME280;46439;51.164;13.572;2023-05-23T05:48:35;99640.17;;;19.82;100.00
60611;BME280;46439;51.164;13.572;2023-05-23T05:51:04;99639.89;;;19.81;100.00
60611;BME280;46439;51.164;13.572;2023-05-23T05:53:32;99637.14;;;19.87;100.00
60611;BME280;46439;51.164;13.572;2023-05-23T05:56:03;99645.16;;;19.87;100.00
60611;BME280;46439;51.164;13.572;2023-05-23T05:58:32;99649.60;;;19.88;100.00
60611;BME280;46439;51.164;13.572;2023-05-23T06:01:00;99651.73;;;19.90;100.00
60611;BME280;46439;51.164;13.572;2023-05-23T06:03:28;99653.94;;;19.94;100.00
60611;BME280;46439;51.164;13.572;2023-05-23T06:05:57;99656.86;;;19.99;100.00
60611;BME280;46439;51.164;13.572;2023-05-23T06:08:25;99656.70;;;19.93;100.00
60611;BME280;46439;51.164;13.572;2023-05-23T06:10:54;99652.30;;;19.99;100.00
60611;BME280;46439;51.164;13.572;2023-05-23T06:13:24;99653.83;;;19.92;100.00
60611;BME280;46439;51.164;13.572;2023-05-23T06:15:52;99660.81;;;19.94;100.00
60611;BME280;46439;51.164;13.572;2023-05-23T06:18:21;99663.77;;;19.75;100.00
60611;BME280;46439;51.164;13.572;2023-05-23T06:20:50;99666.01;;;19.87;100.00
60611;BME280;46439;51.164;13.572;2023-05-23T06:23:18;99665.92;;;19.90;100.00
60611;BME280;46439;51.164;13.572;2023-05-23T06:25:47;99664.95;;;19.92;100.00
60611;BME280;46439;51.164;13.572;2023-05-23T06:28:15;99663.83;;;19.87;100.00
60611;BME280;46439;51.164;13.572;2023-05-23T06:30:44;99669.99;;;19.82;100.00
60611;BME280;46439;51.164;13.572;2023-05-23T06:33:12;99662.27;;;19.86;100.00
60611;BME280;46439;51.164;13.572;2023-05-23T06:35:41;99666.66;;;19.72;100.00
60611;BME280;46439;51.164;13.572;2023-05-23T06:38:09;99666.63;;;19.87;100.00
60611;BME280;46439;51.164;13.572;2023-05-23T06:40:38;99665.08;;;19.95;100.00
60611;BME280;46439;51.164;13.572;2023-05-23T06:43:06;99669.11;;;20.01;100.00
60611;BME280;46439;51.164;13.572;2023-05-23T06:45:35;99671.48;;;20.09;100.00
60611;BME280;46439;51.164;13.572;2023-05-23T06:48:05;99675.04;;;20.14;100.00
60611;BME280;46439;51.164;13.572;2023-05-23T06:50:34;99675.10;;;20.19;100.00
60611;BME280;46439;51.164;13.572;2023-05-23T06:53:02;99675.77;;;20.25;100.00
60611;BME280;46439;51.164;13.572;2023-05-23T06:55:31;99670.60;;;20.31;100.00
60611;BME280;46439;51.164;13.572;2023-05-23T06:58:01;99674.19;;;20.38;100.00
60611;BME280;46439;51.164;13.572;2023-05-23T07:00:31;99676.17;;;20.42;100.00
60611;BME280;46439;51.164;13.572;2023-05-23T07:03:00;99673.96;;;20.44;100.00
60611;BME280;46439;51.164;13.572;2023-05-23T07:05:30;99673.62;;;20.50;100.00
60611;BME280;46439;51.164;13.572;2023-05-23T07:08:00;99675.27;;;20.63;100.00
60611;BME280;46439;51.164;13.572;2023-05-23T07:10:28;99674.77;;;20.70;100.00
60611;BME280;46439;51.164;13.572;2023-05-23T07:12:57;99677.98;;;20.73;100.00
60611;BME280;46439;51.164;13.572;2023-05-23T07:15:25;99678.58;;;20.76;100.00
60611;BME280;46439;51.164;13.572;2023-05-23T07:17:54;99677.71;;;20.80;100.00
60611;BME280;46439;51.164;13.572;2023-05-23T07:20:23;99680.41;;;20.89;100.00
60611;BME280;46439;51.164;13.572;2023-05-23T07:22:51;99682.91;;;21.00;100.00
60611;BME280;46439;51.164;13.572;2023-05-23T07:25:20;99679.04;;;21.11;100.00
60611;BME280;46439;51.164;13.572;2023-05-23T07:27:50;99679.06;;;21.21;100.00
60611;BME280;46439;51.164;13.572;2023-05-23T07:30:21;99678.25;;;21.26;100.00
60611;BME280;46439;51.164;13.572;2023-05-23T07:32:50;99682.11;;;21.23;100.00
60611;BME280;46439;51.164;13.572;2023-05-23T07:35:19;99678.85;;;21.29;100.00
60611;BME280;46439;51.164;13.572;2023-05-23T07:37:51;99678.98;;;21.33;100.00
60611;BME280;46439;51.164;13.572;2023-05-23T07:40:20;99685.66;;;21.40;100.00
60611;BME280;46439;51.164;13.572;2023-05-23T07:42:49;99683.95;;;21.43;100.00
60611;BME280;46439;51.164;13.572;2023-05-23T07:45:17;99683.25;;;21.48;100.00
60611;BME280;46439;51.164;13.572;2023-05-23T07:47:46;99684.56;;;21.56;100.00
60611;BME280;46439;51.164;13.572;2023-05-23T07:50:14;99684.70;;;21.46;100.00
60611;BME280;46439;51.164;13.572;2023-05-23T07:52:43;99686.43;;;21.47;100.00
60611;BME280;46439;51.164;13.572;2023-05-23T07:55:12;99687.67;;;21.60;100.00
60611;BME280;46439;51.164;13.572;2023-05-23T07:57:40;99691.44;;;21.58;100.00
60611;BME280;46439;51.164;13.572;2023-05-23T08:00:11;99695.65;;;21.71;100.00
60611;BME280;46439;51.164;13.572;2023-05-23T08:02:39;99695.52;;;21.74;100.00
60611;BME280;46439;51.164;13.572;2023-05-23T08:05:10;99697.65;;;21.80;100.00
60611;BME280;46439;51.164;13.572;2023-05-23T08:07:38;99694.08;;;21.73;100.00
60611;BME280;46439;51.164;13.572;2023-05-23T08:10:08;99696.66;;;21.54;100.00
60611;BME280;46439;51.164;13.572;2023-05-23T08:12:37;99693.66;;;21.43;100.00
60611;BME280;46439;51.164;13.572;2023-05-23T08:15:07;99696.34;;;21.49;100.00
60611;BME280;46439;51.164;13.572;2023-05-23T08:17:36;99698.17;;;21.43;100.00
60611;BME280;46439;51.164;13.572;2023-05-23T08:20:06;99701.04;;;21.41;100.00
60611;BME280;46439;51.164;13.572;2023-05-23T08:22:36;99695.91;;;21.38;100.00
60611;BME280;46439;51.164;13.572;2023-05-23T08:25:06;99698.05;;;21.39;100.00
60611;BME280;46439;51.164;13.572;2023-05-23T08:27:35;99704.81;;;21.40;100.00
60611;BME280;46439;51.164;13.572;2023-05-23T08:30:05;99699.02;;;21.41;100.00
60611;BME280;46439;51.164;13.572;2023-05-23T08:32:36;99701.58;;;21.46;100.00
60611;BME280;46439;51.164;13.572;2023-05-23T08:35:07;99706.14;;;21.56;100.00
60611;BME280;46439;51.164;13.572;2023-05-23T08:37:35;99708.05;;;21.56;100.00
60611;BME280;46439;51.164;13.572;2023-05-23T08:40:07;99709.95;;;21.63;100.00
60611;BME280;46439;51.164;13.572;2023-05-23T08:42:41;99712.48;;;21.83;100.00
60611;BME280;46439;51.164;13.572;2023-05-23T08:45:10;99712.64;;;21.90;100.00
60611;BME280;46439;51.164;13.572;2023-05-23T08:47:43;99710.94;;;21.83;100.00
60611;BME280;46439;51.164;13.572;2023-05-23T08:50:13;99712.21;;;21.84;100.00
60611;BME280;46439;51.164;13.572;2023-05-23T08:52:46;99717.21;;;21.96;100.00
60611;BME280;46439;51.164;13.572;2023-05-23T08:55:16;99723.42;;;21.95;100.00
60611;BME280;46439;51.164;13.572;2023-05-23T08:57:46;99724.02;;;22.00;100.00
60611;BME280;46439;51.164;13.572;2023-05-23T09:00:17;99725.64;;;22.02;100.00
60611;BME280;46439;51.164;13.572;2023-05-23T09:02:46;99728.17;;;21.91;100.00
60611;BME280;46439;51.164;13.572;2023-05-23T09:05:15;99733.93;;;21.85;100.00
60611;BME280;46439;51.164;13.572;2023-05-23T09:07:46;99731.73;;;21.86;100.00
60611;BME280;46439;51.164;13.572;2023-05-23T09:10:15;99738.04;;;21.55;100.00
60611;BME280;46439;51.164;13.572;2023-05-23T09:12:50;99740.54;;;21.42;100.00
60611;BME280;46439;51.164;13.572;2023-05-23T09:15:18;99742.63;;;21.37;100.00
60611;BME280;46439;51.164;13.572;2023-05-23T09:17:47;99752.20;;;21.26;100.00
60611;BME280;46439;51.164;13.572;2023-05-23T09:20:16;99752.02;;;21.17;100.00
60611;BME280;46439;51.164;13.572;2023-05-23T09:22:47;99755.69;;;21.16;100.00
60611;BME280;46439;51.164;13.572;2023-05-23T09:25:16;99758.80;;;21.06;100.00
60611;BME280;46439;51.164;13.572;2023-05-23T09:27:45;99761.31;;;20.98;100.00
60611;BME280;46439;51.164;13.572;2023-05-23T09:30:15;99764.63;;;20.96;100.00
60611;BME280;46439;51.164;13.572;2023-05-23T09:32:58;99765.06;;;20.95;100.00
60611;BME280;46439;51.164;13.572;2023-05-23T09:35:28;99767.10;;;20.88;100.00
60611;BME280;46439;51.164;13.572;2023-05-23T09:37:58;99767.41;;;20.83;100.00
60611;BME280;46439;51.164;13.572;2023-05-23T09:40:31;99769.41;;;20.82;100.00
60611;BME280;46439;51.164;13.572;2023-05-23T09:43:04;99773.02;;;20.74;100.00
60611;BME280;46439;51.164;13.572;2023-05-23T09:45:34;99776.92;;;20.78;100.00
60611;BME280;46439;51.164;13.572;2023-05-23T09:48:03;99774.05;;;20.87;100.00
60611;BME280;46439;51.164;13.572;2023-05-23T09:50:33;99777.50;;;20.86;100.00
60611;BME280;46439;51.164;13.572;2023-05-23T09:53:02;99774.70;;;20.76;100.00
60611;BME280;46439;51.164;13.572;2023-05-23T09:55:30;99777.67;;;20.81;100.00
60611;BME280;46439;51.164;13.572;2023-05-23T09:57:59;99780.95;;;20.80;100.00
60611;BME280;46439;51.164;13.572;2023-05-23T10:00:28;99781.67;;;20.76;100.00
60611;BME280;46439;51.164;13.572;2023-05-23T10:03:01;99782.29;;;20.68;100.00
60611;BME280;46439;51.164;13.572;2023-05-23T10:05:35;99784.89;;;20.62;100.00
60611;BME280;46439;51.164;13.572;2023-05-23T10:08:10;99789.11;;;20.40;100.00
60611;BME280;46439;51.164;13.572;2023-05-23T10:14:04;99797.47;;;20.42;100.00
60611;BME280;46439;51.164;13.572;2023-05-23T10:16:41;99800.10;;;20.45;100.00
60611;BME280;46439;51.164;13.572;2023-05-23T10:19:19;99794.23;;;20.63;100.00
60611;BME280;46439;51.164;13.572;2023-05-23T10:21:57;99795.98;;;20.76;100.00
60611;BME280;46439;51.164;13.572;2023-05-23T10:24:30;99796.05;;;20.73;100.00
60611;BME280;46439;51.164;13.572;2023-05-23T10:26:59;99797.64;;;20.80;100.00
60611;BME280;46439;51.164;13.572;2023-05-23T10:29:27;99793.49;;;20.92;100.00
60611;BME280;46439;51.164;13.572;2023-05-23T10:31:56;99793.47;;;20.95;100.00
60611;BME280;46439;51.164;13.572;2023-05-23T10:34:29;99793.59;;;20.99;100.00
60611;BME280;46439;51.164;13.572;2023-05-23T10:37:02;99798.69;;;20.94;100.00
60611;BME280;46439;51.164;13.572;2023-05-23T10:39:45;99796.48;;;21.17;100.00
60611;BME280;46439;51.164;13.572;2023-05-23T10:42:21;99801.29;;;21.22;100.00
60611;BME280;46439;51.164;13.572;2023-05-23T10:44:52;99801.39;;;21.29;100.00
60611;BME280;46439;51.164;13.572;2023-05-23T10:47:27;99799.41;;;21.47;100.00
60611;BME280;46439;51.164;13.572;2023-05-23T10:49:56;99805.10;;;21.43;100.00
60611;BME280;46439;51.164;13.572;2023-05-23T10:52:25;99804.27;;;21.39;100.00
60611;BME280;46439;51.164;13.572;2023-05-23T10:54:55;99805.61;;;21.33;100.00
60611;BME280;46439;51.164;13.572;2023-05-23T10:57:26;99802.66;;;21.34;100.00
60611;BME280;46439;51.164;13.572;2023-05-23T10:59:57;99804.38;;;21.35;100.00
60611;BME280;46439;51.164;13.572;2023-05-23T11:02:28;99808.04;;;21.29;100.00
60611;BME280;46439;51.164;13.572;2023-05-23T11:05:21;99806.59;;;21.28;100.00
60611;BME280;46439;51.164;13.572;2023-05-23T11:08:07;99807.79;;;21.36;100.00
60611;BME280;46439;51.164;13.572;2023-05-23T11:10:53;99812.36;;;21.47;100.00
60611;BME280;46439;51.164;13.572;2023-05-23T11:13:23;99816.62;;;21.35;100.00
60611;BME280;46439;51.164;13.572;2023-05-23T11:15:52;99820.95;;;21.34;100.00
60611;BME280;46439;51.164;13.572;2023-05-23T11:18:27;99818.00;;;21.35;100.00
60611;BME280;46439;51.164;13.572;2023-05-23T11:20:59;99824.63;;;21.43;100.00
60611;BME280;46439;51.164;13.572;2023-05-23T11:23:40;99819.34;;;21.50;100.00
60611;BME280;46439;51.164;13.572;2023-05-23T11:26:29;99818.46;;;21.51;100.00
60611;BME280;46439;51.164;13.572;2023-05-23T11:28:59;99817.40;;;21.50;100.00
60611;BME280;46439;51.164;13.572;2023-05-23T11:31:27;99817.31;;;21.46;100.00
60611;BME280;46439;51.164;13.572;2023-05-23T11:33:56;99825.45;;;21.44;100.00
60611;BME280;46439;51.164;13.572;2023-05-23T11:36:25;99824.06;;;21.47;100.00
60611;BME280;46439;51.164;13.572;2023-05-23T11:38:55;99820.34;;;21.48;100.00
60611;BME280;46439;51.164;13.572;2023-05-23T11:41:24;99827.49;;;21.45;100.00
60611;BME280;46439;51.164;13.572;2023-05-23T11:43:53;99825.25;;;21.43;100.00
60611;BME280;46439;51.164;13.572;2023-05-23T11:46:22;99824.75;;;21.43;100.00
60611;BME280;46439;51.164;13.572;2023-05-23T11:48:50;99821.85;;;21.46;100.00
60611;BME280;46439;51.164;13.572;2023-05-23T11:51:19;99819.48;;;21.52;100.00
60611;BME280;46439;51.164;13.572;2023-05-23T11:53:48;99811.40;;;21.58;100.00
60611;BME280;46439;51.164;13.572;2023-05-23T11:56:17;99812.98;;;21.65;100.00
60611;BME280;46439;51.164;13.572;2023-05-23T11:58:45;99812.37;;;21.64;100.00
60611;BME280;46439;51.164;13.572;2023-05-23T12:01:14;99814.09;;;21.61;100.00
60611;BME280;46439;51.164;13.572;2023-05-23T12:03:49;99816.21;;;21.56;100.00
60611;BME280;46439;51.164;13.572;2023-05-23T12:06:19;99812.17;;;21.57;100.00
60611;BME280;46439;51.164;13.572;2023-05-23T12:08:48;99809.89;;;21.59;100.00
60611;BME280;46439;51.164;13.572;2023-05-23T12:11:16;99812.11;;;21.49;100.00
60611;BME280;46439;51.164;13.572;2023-05-23T12:13:46;99811.71;;;21.33;100.00
60611;BME280;46439;51.164;13.572;2023-05-23T12:16:15;99810.23;;;21.10;100.00
60611;BME280;46439;51.164;13.572;2023-05-23T12:18:43;99808.13;;;21.02;100.00
60611;BME280;46439;51.164;13.572;2023-05-23T12:21:12;99806.28;;;20.96;100.00
60611;BME280;46439;51.164;13.572;2023-05-23T12:23:42;99813.45;;;20.83;100.00
60611;BME280;46439;51.164;13.572;2023-05-23T12:26:11;99814.95;;;20.74;100.00
60611;BME280;46439;51.164;13.572;2023-05-23T12:28:41;99818.63;;;20.68;100.00
60611;BME280;46439;51.164;13.572;2023-05-23T12:31:14;99818.92;;;20.76;100.00
60611;BME280;46439;51.164;13.572;2023-05-23T12:33:45;99823.64;;;20.79;100.00
60611;BME280;46439;51.164;13.572;2023-05-23T12:36:20;99823.45;;;20.85;100.00
60611;BME280;46439;51.164;13.572;2023-05-23T12:38:49;99823.63;;;20.78;100.00
60611;BME280;46439;51.164;13.572;2023-05-23T12:41:18;99828.95;;;20.81;100.00
60611;BME280;46439;51.164;13.572;2023-05-23T12:43:57;99833.95;;;20.63;100.00
60611;BME280;46439;51.164;13.572;2023-05-23T12:46:26;99833.41;;;20.56;100.00
60611;BME280;46439;51.164;13.572;2023-05-23T12:48:55;99837.06;;;20.57;100.00
60611;BME280;46439;51.164;13.572;2023-05-23T12:51:24;99837.14;;;20.59;100.00
60611;BME280;46439;51.164;13.572;2023-05-23T12:53:54;99837.41;;;20.58;100.00
60611;BME280;46439;51.164;13.572;2023-05-23T12:56:22;99838.67;;;20.63;100.00
60611;BME280;46439;51.164;13.572;2023-05-23T12:58:51;99837.19;;;20.63;100.00